Keynsham, United Kingdom
Current Conditions -  °F | °C
As of 6:20 PM on Thursday 29 Jan 2015 (Local Time) from EGGD Reporting Station
Scattered Clouds Scattered Clouds  
Wind Chill: 24°   Ceiling: Unl
Heat Index: 32°   Visibility: 6mi
Dew Point: 30°   Wind: 10mph
Humidity: 93%   Direction: 240°WSW
Pressure: 28.94"   Gusts: NA
Location:  51.41°N, 2.5°W
Report Text: EGGD 291820Z 24009KT 9999 SCT023 00/M01 Q0980
Loading
Personal Weather Stations






























Interactive Weather Map New forecast layout! Learn more

10-Day Weather Forecast

Advertisements
Track Severe Weather on mobile